메인 페이지
METAR-TAF:

METAR-TAF

공항 :

수쿠르, 파키스탄

위도: 27-43-19N, 경도: 068-47-31E, 고도: 60m

현재 날씨관측

예보는 47분 전, 08:00시(UTC)에 발표되었습니다.
남동6kt
온도 40°C
습도 46%
기압
시정: 0995m
연무

METAR: OPSK 240800Z 13006KT 5000 HZ NSC 40/26 QNH 0995 NOSIG

시각: 13:47 (08:47 UTC)

예보

예보는 4 시간 47분 전, 04:00시(UTC)에 발표되었습니다.
예보 대상 시간: 24일 06시부터 25일 06시까지 (UTC)
5kt, 순간 최대 풍속 15kt
시정: 5000m
연무
시부터 (UTC)
10kt, 순간 최대 풍속 20kt
시정: 4000m
연무
일시적
25일 00시부터 25일 04시까지 (UTC)
5kt, 순간 최대 풍속 15kt
시정: 3000m
연무

TAF: OPSK 240400Z 2406/2506 18005G15KT 5000 HZ NSC FM 241500 18010G20KT 4000 HZ NSC TEMPO 2500/2504 18005G15KT 3000 HZ NSC

4,000개 이상의 공항 관측 자료 및 예보 (METAR 및 TAF 보고).

지도상에서 검색 가능한 기상관측소가 노란 점과 빨간 점으로 표시되어 있습니다.

기상관측소 명을 보려면 표시 위로 마우스를 이동하세요.

날씨 관측과 예보를 보려면 클릭하세요.

지도 변경 : 확대하려면 엑스 표시가 있는 녹색 버튼, 축소하려면 빼기 표시가 있는 녹색 버튼, 다음 페이지의 지도를 보려면 녹색 화살표를 클릭하세요.


METAR-TAF: